Amherst Junction, Wisconsin
Current Conditions -  °F | °C
As of 6:55 AM on Saturday 20 Dec 2014 (Local Time) from KSTE Reporting Station
Haze Haze  
Wind Chill: -5°   Ceiling: 700
Heat Index: -5°   Visibility: 4mi
Dew Point: -6°   Wind: 0mph
Humidity: 96%   Direction: NA
Pressure: 30.23"   Gusts: NA
Location:  44.47°N, 89.31°W
Report Text: KSTE 201255Z AUTO 00000KT 4SM BR OVC007 M05/M06 A3023 RMK AO2 T10501056
Loading
Personal Weather Stations






























Interactive Weather Map New forecast layout! Learn more

10-Day Weather Forecast

Advertisements
Track Severe Weather on mobile